Charter Quote
Worldwide +1-877-727-2538 Call
Select Language Lang
SAFETY RELIABILITY EXPERIENCE

Private Jet Charter Services - Aksu Airport (ZWAK)

Paramount Business Jets offers private jet charter flights and luxury airliner charters to and from Aksu Airport.

AIRPORT INFORMATION
ICAOZWAK
LOCATIONAksu, China
FACILITY TYPEAIRPORT

At Paramount Business Jets you can hire chartered private jets to and from Aksu Airport with as little as 4 hours of notice. All flights booked via Paramount Business Jets are operated by certified direct air carriers that meet and exceed the FAA part 135 and 121 protocol or a foreign equivalent safety authority. Furthermore, Paramount Business Jets subscribes to ARGUS for their third party safety checks of operators, aircraft, and crews prior each and every flight to and from Aksu Airport and worldwide.

  • Quote a trip using Aksu Airport or call us 24/7 - 365 days a year at +1-877-727-2538.
Questions? Call +1-877-727-2538

METAR Weather Data at Aksu Airport, ZWAK

STATIONZWAK
OBSERVEDMon Oct 3, 21:00 UTC
NOWSat Dec 7, 07:20 UTC
AGE27826:20 hr ago
WINDNE at 7 mph
VISIBILITYgreater than 7 miles
CLOUDSclear skies
TEMP50°F (10°C)
WIND CHILL47°F (8°C)
DEWPT28°F (-2°C)
HUMIDITY43%
BAROMETER1025 hPa (30.27 in Hg)
METARZWAK 032100Z 05003MPS CAVOK 10/M02 Q1025 NOSIG

Call us on +1-877-727-2538 (24 Hours) to Hire a Private Jet or Get a Quick Quote.

Find Airports Near any Location

Processing
...